createdAt,value
2017-06-18T00:00:09.580Z,25.82
2017-06-18T00:01:09.921Z,25.79
2017-06-18T00:02:09.641Z,25.8
2017-06-18T00:03:10.231Z,25.79
2017-06-18T00:04:10.022Z,25.83
2017-06-18T00:05:10.036Z,25.8
2017-06-18T00:06:09.753Z,25.82
2017-06-18T00:07:10.086Z,25.77
2017-06-18T00:08:10.375Z,25.79
2017-06-18T00:09:09.839Z,25.76
2017-06-18T00:10:10.181Z,25.83
2017-06-18T00:11:10.197Z,25.8
2017-06-18T00:12:10.234Z,25.76
2017-06-18T00:13:10.268Z,25.82
2017-06-18T00:14:10.292Z,25.82
2017-06-18T00:15:10.329Z,25.8
2017-06-18T00:16:10.350Z,25.73
2017-06-18T00:17:09.759Z,25.65
2017-06-18T00:18:10.348Z,25.75
2017-06-18T00:19:10.120Z,25.76
2017-06-18T00:20:10.157Z,25.7
2017-06-18T00:21:10.497Z,25.76
2017-06-18T00:22:10.209Z,25.77
2017-06-18T00:23:10.804Z,25.75
2017-06-18T00:24:10.578Z,25.76
2017-06-18T00:25:10.300Z,25.72
2017-06-18T00:26:10.005Z,25.7
2017-06-18T00:27:10.675Z,25.77
2017-06-18T00:28:10.634Z,25.73
2017-06-18T00:29:10.728Z,25.7
2017-06-18T00:30:10.128Z,25.75
2017-06-18T00:31:10.778Z,25.75
2017-06-18T00:32:10.809Z,25.73
2017-06-18T00:33:10.785Z,25.69
2017-06-18T00:34:10.872Z,25.7
2017-06-18T00:35:10.900Z,25.72
2017-06-18T00:36:10.915Z,25.7
2017-06-18T00:37:10.958Z,25.73
2017-06-18T00:38:11.235Z,25.77
2017-06-18T00:39:11.038Z,25.77
2017-06-18T00:40:10.729Z,25.67
2017-06-18T00:41:10.753Z,25.75
2017-06-18T00:42:10.787Z,25.76
2017-06-18T00:43:11.070Z,25.73
2017-06-18T00:44:10.840Z,25.7
2017-06-18T00:45:11.189Z,25.69
2017-06-18T00:46:10.905Z,25.76
2017-06-18T00:47:10.929Z,25.73
2017-06-18T00:48:11.271Z,25.72
2017-06-18T00:49:11.304Z,25.7
2017-06-18T00:50:11.012Z,25.72
2017-06-18T00:51:11.041Z,25.76
2017-06-18T00:52:11.082Z,25.73
2017-06-18T00:53:11.355Z,25.7
2017-06-18T00:54:11.132Z,25.73
2017-06-18T00:55:11.157Z,25.73
2017-06-18T00:56:11.505Z,25.77
2017-06-18T00:57:11.529Z,25.72
2017-06-18T00:58:11.559Z,25.73
2017-06-18T00:59:11.587Z,25.73
2017-06-18T01:00:11.608Z,25.69
2017-06-18T01:01:11.341Z,25.7
2017-06-18T01:02:11.670Z,25.73
2017-06-18T01:03:11.639Z,25.7
2017-06-18T01:04:11.099Z,25.67
2017-06-18T01:05:11.757Z,25.72
2017-06-18T01:06:11.782Z,25.67
2017-06-18T01:07:11.507Z,25.67
2017-06-18T01:08:12.094Z,25.69
2017-06-18T01:09:11.872Z,25.73
2017-06-18T01:10:11.277Z,25.72
2017-06-18T01:11:11.957Z,25.64
2017-06-18T01:12:11.963Z,25.67
2017-06-18T01:13:11.991Z,25.67
2017-06-18T01:14:11.704Z,25.69
2017-06-18T01:15:12.045Z,25.67
2017-06-18T01:16:12.073Z,25.65
2017-06-18T01:17:12.116Z,25.72
2017-06-18T01:18:12.070Z,25.69
2017-06-18T01:19:11.848Z,25.7
2017-06-18T01:20:12.183Z,25.69
2017-06-18T01:21:11.597Z,25.7
2017-06-18T01:22:12.248Z,25.73
2017-06-18T01:23:11.963Z,25.73
2017-06-18T01:24:12.308Z,25.73
2017-06-18T01:25:12.341Z,25.7
2017-06-18T01:26:12.364Z,25.7
2017-06-18T01:27:12.390Z,25.75
2017-06-18T01:28:12.361Z,25.7
2017-06-18T01:29:12.135Z,25.69
2017-06-18T01:30:12.169Z,25.7
2017-06-18T01:31:12.501Z,25.72
2017-06-18T01:32:12.217Z,25.73
2017-06-18T01:33:12.247Z,25.65
2017-06-18T01:34:12.591Z,25.64
2017-06-18T01:35:12.624Z,25.65
2017-06-18T01:36:12.341Z,25.72
2017-06-18T01:37:12.683Z,25.69
2017-06-18T01:38:12.963Z,25.72
2017-06-18T01:39:12.739Z,25.69
2017-06-18T01:40:12.769Z,25.69
2017-06-18T01:41:12.801Z,25.72
2017-06-18T01:42:12.818Z,25.69
2017-06-18T01:43:13.106Z,25.7
2017-06-18T01:44:12.887Z,25.67
2017-06-18T01:45:12.908Z,25.64
2017-06-18T01:46:12.621Z,25.62
2017-06-18T01:47:12.962Z,25.7
2017-06-18T01:48:13.250Z,25.65
2017-06-18T01:49:13.023Z,25.67
2017-06-18T01:50:13.068Z,25.69
2017-06-18T01:51:13.080Z,25.67
2017-06-18T01:52:12.795Z,25.65
2017-06-18T01:53:13.139Z,25.61
2017-06-18T01:54:13.171Z,25.67
2017-06-18T01:55:13.196Z,25.72
2017-06-18T01:56:12.909Z,25.69
2017-06-18T01:57:13.254Z,25.64
2017-06-18T01:58:13.283Z,25.75
2017-06-18T01:59:13.312Z,25.65
2017-06-18T02:00:13.024Z,25.67
2017-06-18T02:01:13.374Z,25.67
2017-06-18T02:02:13.085Z,25.65
2017-06-18T02:03:13.362Z,25.67
2017-06-18T02:04:13.455Z,25.64
2017-06-18T02:05:13.168Z,25.64
2017-06-18T02:06:13.196Z,25.62
2017-06-18T02:07:13.538Z,25.6
2017-06-18T02:08:13.567Z,25.58
2017-06-18T02:09:13.595Z,25.72
2017-06-18T02:10:13.629Z,25.7
2017-06-18T02:11:13.028Z,25.72
2017-06-18T02:12:13.365Z,25.69
2017-06-18T02:13:13.969Z,25.65
2017-06-18T02:14:13.740Z,25.7
2017-06-18T02:15:13.455Z,25.76
2017-06-18T02:16:13.801Z,25.75
2017-06-18T02:17:13.829Z,25.73
2017-06-18T02:18:13.850Z,25.73
2017-06-18T02:19:13.882Z,25.7
2017-06-18T02:20:13.912Z,25.77
2017-06-18T02:21:13.313Z,25.76
2017-06-18T02:22:13.970Z,25.73
2017-06-18T02:23:13.679Z,25.67
2017-06-18T02:24:13.715Z,25.7
2017-06-18T02:25:13.739Z,25.69
2017-06-18T02:26:13.768Z,25.73
2017-06-18T02:27:14.121Z,25.75
2017-06-18T02:28:14.139Z,25.69
2017-06-18T02:29:14.168Z,25.73
2017-06-18T02:30:14.196Z,25.7
2017-06-18T02:31:14.232Z,25.79
2017-06-18T02:32:13.945Z,25.75
2017-06-18T02:33:14.283Z,25.76
2017-06-18T02:34:14.317Z,25.73
2017-06-18T02:35:14.340Z,25.72
2017-06-18T02:36:14.374Z,25.79
2017-06-18T02:37:14.398Z,25.76
2017-06-18T02:38:14.116Z,25.76
2017-06-18T02:39:14.460Z,25.77
2017-06-18T02:40:14.489Z,25.73
2017-06-18T02:41:14.521Z,25.79
2017-06-18T02:42:14.547Z,25.67
2017-06-18T02:43:14.574Z,25.79
2017-06-18T02:44:14.600Z,25.67
2017-06-18T02:45:14.316Z,25.67
2017-06-18T02:46:14.347Z,25.73
2017-06-18T02:47:14.689Z,25.64
2017-06-18T02:48:14.717Z,25.7
2017-06-18T02:49:14.109Z,25.7
2017-06-18T02:50:14.778Z,25.7
2017-06-18T02:51:14.801Z,25.73
2017-06-18T02:52:14.825Z,25.73
2017-06-18T02:53:14.859Z,25.73
2017-06-18T02:54:14.819Z,25.73
2017-06-18T02:55:14.608Z,25.73
2017-06-18T02:56:14.937Z,25.72
2017-06-18T02:57:14.970Z,25.75
2017-06-18T02:58:15.006Z,25.77
2017-06-18T02:59:15.019Z,25.7
2017-06-18T03:00:14.428Z,25.73
2017-06-18T03:01:15.084Z,25.75
2017-06-18T03:02:15.112Z,25.79
2017-06-18T03:03:14.830Z,25.75
2017-06-18T03:04:15.426Z,25.73
2017-06-18T03:05:15.195Z,25.69
2017-06-18T03:06:15.228Z,25.7
2017-06-18T03:07:14.945Z,25.67
2017-06-18T03:08:15.282Z,25.67
2017-06-18T03:09:15.566Z,25.67
2017-06-18T03:10:15.347Z,25.73
2017-06-18T03:11:15.377Z,25.7
2017-06-18T03:12:15.403Z,25.69
2017-06-18T03:13:15.114Z,25.79
2017-06-18T03:14:15.467Z,25.64
2017-06-18T03:15:15.492Z,25.75
2017-06-18T03:16:15.208Z,25.77
2017-06-18T03:17:15.546Z,25.75
2017-06-18T03:18:15.618Z,25.75
2017-06-18T03:19:15.855Z,25.73
2017-06-18T03:20:15.627Z,25.76
2017-06-18T03:21:15.348Z,25.73
2017-06-18T03:22:15.694Z,25.73
2017-06-18T03:23:15.723Z,25.73
2017-06-18T03:24:16.007Z,25.67
2017-06-18T03:25:15.464Z,25.65
2017-06-18T03:26:15.498Z,25.65
2017-06-18T03:27:15.833Z,25.67
2017-06-18T03:28:15.543Z,25.73
2017-06-18T03:29:15.571Z,25.62
2017-06-18T03:30:15.604Z,25.61
2017-06-18T03:31:15.945Z,25.65
2017-06-18T03:32:15.980Z,25.62
2017-06-18T03:33:15.694Z,25.69
2017-06-18T03:34:16.282Z,25.69
2017-06-18T03:35:16.068Z,25.75
2017-06-18T03:36:15.777Z,25.7
2017-06-18T03:37:15.806Z,25.61
2017-06-18T03:38:15.835Z,25.69
2017-06-18T03:39:16.430Z,25.72
2017-06-18T03:40:15.899Z,25.65
2017-06-18T03:41:16.232Z,25.69
2017-06-18T03:42:15.950Z,25.7
2017-06-18T03:43:16.290Z,25.67
2017-06-18T03:44:16.572Z,25.75
2017-06-18T03:45:16.036Z,25.73
2017-06-18T03:46:16.065Z,25.7
2017-06-18T03:47:15.786Z,25.76
2017-06-18T03:48:16.433Z,25.77
2017-06-18T03:49:16.711Z,25.72
2017-06-18T03:50:16.172Z,25.79
2017-06-18T03:51:16.521Z,25.8
2017-06-18T03:52:16.549Z,25.75
2017-06-18T03:53:16.582Z,25.72
2017-06-18T03:54:16.607Z,25.76
2017-06-18T03:55:16.324Z,25.77
2017-06-18T03:56:16.653Z,25.73
2017-06-18T03:57:16.694Z,25.8
2017-06-18T03:58:16.723Z,25.75
2017-06-18T03:59:17.000Z,25.79
2017-06-18T04:00:16.463Z,25.8
2017-06-18T04:01:16.496Z,25.79
2017-06-18T04:02:16.838Z,25.72
2017-06-18T04:03:16.269Z,25.72
2017-06-18T04:04:17.143Z,25.8
2017-06-18T04:05:16.928Z,25.77
2017-06-18T04:06:16.953Z,25.76
2017-06-18T04:07:16.672Z,25.72
2017-06-18T04:08:17.014Z,25.8
2017-06-18T04:09:16.967Z,25.85
2017-06-18T04:10:17.054Z,25.8
2017-06-18T04:11:16.782Z,25.76
2017-06-18T04:12:17.122Z,25.77
2017-06-18T04:13:16.826Z,25.82
2017-06-18T04:14:17.118Z,25.76
2017-06-18T04:15:17.204Z,25.79
2017-06-18T04:16:16.909Z,25.8
2017-06-18T04:17:16.637Z,25.8
2017-06-18T04:18:16.978Z,25.8
2017-06-18T04:19:17.255Z,25.8
2017-06-18T04:20:17.344Z,25.77
2017-06-18T04:21:17.065Z,25.8
2017-06-18T04:22:17.098Z,25.87
2017-06-18T04:23:16.819Z,25.82
2017-06-18T04:24:17.402Z,25.77
2017-06-18T04:25:17.495Z,25.82
2017-06-18T04:26:17.247Z,25.79
2017-06-18T04:27:17.241Z,25.76
2017-06-18T04:28:16.955Z,25.75
2017-06-18T04:29:17.290Z,25.77
2017-06-18T04:30:17.331Z,25.75
2017-06-18T04:31:17.356Z,25.8
2017-06-18T04:32:17.698Z,25.77
2017-06-18T04:33:17.094Z,25.79
2017-06-18T04:34:18.002Z,25.75
2017-06-18T04:35:17.780Z,25.77
2017-06-18T04:36:17.505Z,25.76
2017-06-18T04:37:17.527Z,25.76
2017-06-18T04:38:17.546Z,25.77
2017-06-18T04:39:17.891Z,25.8
2017-06-18T04:40:17.924Z,25.8
2017-06-18T04:41:17.633Z,25.8
2017-06-18T04:42:17.982Z,25.83
2017-06-18T04:43:18.014Z,25.75
2017-06-18T04:44:18.290Z,25.8
2017-06-18T04:45:18.070Z,25.77
2017-06-18T04:46:18.097Z,25.8
2017-06-18T04:47:18.127Z,25.69
2017-06-18T04:48:17.837Z,25.73
2017-06-18T04:49:18.118Z,25.73
2017-06-18T04:50:18.207Z,25.76
2017-06-18T04:51:18.236Z,25.72
2017-06-18T04:52:18.269Z,25.7
2017-06-18T04:53:18.294Z,25.75
2017-06-18T04:54:18.574Z,25.69
2017-06-18T04:55:18.347Z,25.73
2017-06-18T04:56:18.064Z,25.83
2017-06-18T04:57:18.418Z,25.79
2017-06-18T04:58:18.434Z,25.75
2017-06-18T04:59:18.722Z,25.83
2017-06-18T05:00:18.499Z,25.77
2017-06-18T05:01:18.524Z,25.8
2017-06-18T05:02:18.249Z,25.77
2017-06-18T05:03:18.586Z,25.82
2017-06-18T05:04:18.539Z,25.8
2017-06-18T05:05:18.643Z,25.91
2017-06-18T05:06:18.672Z,25.76
2017-06-18T05:07:18.417Z,25.77
2017-06-18T05:08:18.410Z,25.77
2017-06-18T05:09:18.451Z,25.79
2017-06-18T05:10:18.471Z,25.79
2017-06-18T05:11:18.811Z,25.79
2017-06-18T05:12:18.525Z,25.77
2017-06-18T05:13:18.870Z,25.83
2017-06-18T05:14:19.145Z,25.77
2017-06-18T05:15:18.304Z,25.77
2017-06-18T05:16:18.952Z,25.87
2017-06-18T05:17:18.980Z,25.83
2017-06-18T05:18:19.013Z,25.88
2017-06-18T05:19:19.290Z,25.73
2017-06-18T05:20:19.070Z,25.88
2017-06-18T05:21:19.100Z,25.88
2017-06-18T05:22:18.812Z,25.87
2017-06-18T05:23:19.154Z,25.87
2017-06-18T05:24:19.438Z,25.88
2017-06-18T05:25:18.903Z,25.87
2017-06-18T05:26:19.241Z,25.92
2017-06-18T05:27:19.267Z,25.83
2017-06-18T05:28:18.985Z,25.87
2017-06-18T05:29:18.701Z,25.9
2017-06-18T05:30:18.735Z,25.9
2017-06-18T05:31:19.081Z,25.85
2017-06-18T05:32:19.418Z,25.9
2017-06-18T05:33:19.133Z,25.91
2017-06-18T05:34:19.470Z,25.87
2017-06-18T05:35:19.189Z,25.9
2017-06-18T05:36:19.220Z,25.9
2017-06-18T05:37:19.565Z,25.87
2017-06-18T05:38:19.591Z,25.79
2017-06-18T05:39:19.302Z,25.87
2017-06-18T05:40:19.647Z,25.88
2017-06-18T05:41:19.355Z,25.91
2017-06-18T05:42:19.705Z,25.85
2017-06-18T05:43:19.729Z,25.88
2017-06-18T05:44:19.444Z,25.94
2017-06-18T05:45:19.787Z,25.87
2017-06-18T05:46:19.504Z,25.92
2017-06-18T05:47:19.845Z,25.9
2017-06-18T05:48:19.874Z,25.97
2017-06-18T05:49:19.899Z,25.92
2017-06-18T05:50:19.922Z,25.88
2017-06-18T05:51:19.959Z,25.95
2017-06-18T05:52:19.677Z,25.94
2017-06-18T05:53:20.014Z,25.88
2017-06-18T05:54:20.047Z,25.9
2017-06-18T05:55:19.760Z,25.88
2017-06-18T05:56:20.107Z,25.92
2017-06-18T05:57:20.137Z,25.94
2017-06-18T05:58:19.850Z,25.88
2017-06-18T05:59:19.871Z,25.88
2017-06-18T06:00:20.474Z,25.95
2017-06-18T06:01:20.245Z,25.98
2017-06-18T06:02:20.273Z,25.99
2017-06-18T06:03:20.302Z,26.02
2017-06-18T06:04:20.018Z,25.95
2017-06-18T06:05:20.614Z,25.95
2017-06-18T06:06:20.080Z,25.9
2017-06-18T06:07:20.414Z,26.1
2017-06-18T06:08:20.474Z,25.95
2017-06-18T06:09:20.474Z,26.05
2017-06-18T06:10:20.750Z,25.94
2017-06-18T06:11:20.532Z,26.05
2017-06-18T06:12:20.561Z,26.06
2017-06-18T06:13:20.278Z,26.02
2017-06-18T06:14:20.611Z,26.1
2017-06-18T06:15:20.619Z,26.1
2017-06-18T06:16:20.673Z,26.02
2017-06-18T06:17:20.705Z,26.06
2017-06-18T06:18:20.419Z,26.02
2017-06-18T06:19:20.758Z,26.02
2017-06-18T06:20:21.047Z,26.06
2017-06-18T06:21:20.504Z,26.1
2017-06-18T06:22:20.541Z,26.07
2017-06-18T06:23:20.883Z,26.1
2017-06-18T06:24:20.917Z,26.1
2017-06-18T06:25:21.183Z,26.09
2017-06-18T06:26:20.968Z,26.09
2017-06-18T06:27:20.993Z,26.07
2017-06-18T06:28:21.026Z,26.1
2017-06-18T06:29:20.739Z,26.15
2017-06-18T06:30:21.334Z,26.2
2017-06-18T06:31:21.116Z,26.12
2017-06-18T06:32:21.141Z,26.1
2017-06-18T06:33:21.166Z,26.18
2017-06-18T06:34:20.887Z,26.17
2017-06-18T06:35:21.171Z,26.17
2017-06-18T06:36:20.941Z,26.15
2017-06-18T06:37:21.279Z,26.1
2017-06-18T06:38:21.305Z,26.1
2017-06-18T06:39:21.033Z,26.07
2017-06-18T06:40:21.055Z,26.1
2017-06-18T06:41:21.395Z,26.09
2017-06-18T06:42:21.137Z,26.07
2017-06-18T06:43:21.137Z,26.07
2017-06-18T06:44:21.485Z,26.15
2017-06-18T06:45:21.511Z,26.12
2017-06-18T06:46:21.543Z,26.13
2017-06-18T06:47:21.568Z,26.13
2017-06-18T06:48:21.598Z,26.15
2017-06-18T06:49:21.634Z,26.15
2017-06-18T06:50:21.597Z,26.15
2017-06-18T06:51:21.692Z,26.1
2017-06-18T06:52:21.400Z,26.1
2017-06-18T06:53:21.745Z,26.2
2017-06-18T06:54:21.775Z,26.2
2017-06-18T06:55:21.495Z,26.17
2017-06-18T06:56:21.833Z,26.21
2017-06-18T06:57:21.865Z,26.15
2017-06-18T06:58:21.893Z,26.23
2017-06-18T06:59:21.614Z,26.12
2017-06-18T07:00:21.635Z,26.23
2017-06-18T07:01:21.668Z,26.12
2017-06-18T07:02:22.006Z,26.21
2017-06-18T07:03:22.037Z,26.18
2017-06-18T07:04:22.058Z,26.25
2017-06-18T07:05:22.089Z,26.23
2017-06-18T07:06:22.121Z,26.23
2017-06-18T07:07:22.152Z,26.25
2017-06-18T07:08:22.180Z,26.23
2017-06-18T07:09:21.583Z,26.23
2017-06-18T07:10:22.488Z,26.23
2017-06-18T07:11:22.265Z,26.28
2017-06-18T07:12:22.292Z,26.25
2017-06-18T07:13:22.322Z,26.23
2017-06-18T07:14:22.354Z,26.26
2017-06-18T07:15:22.385Z,26.32
2017-06-18T07:16:22.412Z,26.28
2017-06-18T07:17:22.128Z,26.28
2017-06-18T07:18:22.469Z,26.33
2017-06-18T07:19:22.498Z,26.3
2017-06-18T07:20:22.774Z,26.32
2017-06-18T07:21:22.555Z,26.3
2017-06-18T07:22:22.586Z,26.33
2017-06-18T07:23:22.613Z,26.28
2017-06-18T07:24:22.329Z,26.3
2017-06-18T07:25:22.920Z,26.33
2017-06-18T07:26:22.701Z,26.29
2017-06-18T07:27:22.425Z,26.39
2017-06-18T07:28:22.757Z,26.32
2017-06-18T07:29:22.482Z,26.33
2017-06-18T07:30:22.819Z,26.32
2017-06-18T07:31:22.540Z,26.28
2017-06-18T07:32:22.567Z,26.28
2017-06-18T07:33:22.902Z,26.28
2017-06-18T07:34:22.931Z,26.35
2017-06-18T07:35:22.963Z,26.32
2017-06-18T07:36:23.020Z,26.36
2017-06-18T07:37:23.012Z,26.3
2017-06-18T07:38:22.742Z,26.35
2017-06-18T07:39:22.766Z,26.39
2017-06-18T07:40:22.482Z,26.33
2017-06-18T07:41:23.141Z,26.39
2017-06-18T07:42:23.164Z,26.33
2017-06-18T07:43:23.193Z,26.39
2017-06-18T07:44:23.226Z,26.35
2017-06-18T07:45:23.254Z,26.3
2017-06-18T07:46:23.284Z,26.32
2017-06-18T07:47:23.309Z,26.35
2017-06-18T07:48:23.337Z,26.35
2017-06-18T07:49:23.370Z,26.26
2017-06-18T07:50:23.084Z,26.39
2017-06-18T07:51:23.120Z,26.36
2017-06-18T07:52:23.148Z,26.36
2017-06-18T07:53:23.165Z,26.36
2017-06-18T07:54:22.894Z,26.4
2017-06-18T07:55:23.226Z,26.32
2017-06-18T07:56:23.575Z,26.44
2017-06-18T07:57:23.292Z,26.39
2017-06-18T07:58:23.633Z,26.39
2017-06-18T07:59:23.342Z,26.44
2017-06-18T08:00:23.691Z,26.45
2017-06-18T08:01:23.403Z,26.39
2017-06-18T08:02:23.748Z,26.36
2017-06-18T08:03:23.784Z,26.43
2017-06-18T08:04:23.814Z,26.37
2017-06-18T08:05:23.843Z,26.39
2017-06-18T08:06:23.866Z,26.44
2017-06-18T08:07:23.889Z,26.43
2017-06-18T08:08:23.614Z,26.36
2017-06-18T08:09:23.953Z,26.39
2017-06-18T08:10:23.666Z,26.43
2017-06-18T08:11:23.948Z,26.4
2017-06-18T08:12:24.033Z,26.4
2017-06-18T08:13:24.069Z,26.4
2017-06-18T08:14:24.098Z,26.36
2017-06-18T08:15:23.503Z,26.39
2017-06-18T08:16:24.156Z,26.37
2017-06-18T08:17:23.873Z,26.37
2017-06-18T08:18:24.212Z,26.4
2017-06-18T08:19:23.957Z,26.36
2017-06-18T08:20:24.273Z,26.44
2017-06-18T08:21:24.556Z,26.36
2017-06-18T08:22:24.328Z,26.4
2017-06-18T08:23:23.737Z,26.44
2017-06-18T08:24:24.385Z,26.39
2017-06-18T08:25:24.107Z,26.43
2017-06-18T08:26:24.143Z,26.54
2017-06-18T08:27:24.170Z,26.47
2017-06-18T08:28:24.507Z,26.43
2017-06-18T08:29:24.221Z,26.48
2017-06-18T08:30:24.254Z,26.54
2017-06-18T08:31:24.848Z,26.51
2017-06-18T08:32:24.624Z,26.39
2017-06-18T08:33:24.657Z,26.54
2017-06-18T08:34:24.675Z,26.54
2017-06-18T08:35:24.398Z,26.48
2017-06-18T08:36:24.996Z,26.48
2017-06-18T08:37:24.140Z,26.52
2017-06-18T08:38:24.800Z,26.52
2017-06-18T08:39:24.829Z,26.5
2017-06-18T08:40:24.859Z,26.58
2017-06-18T08:41:24.571Z,26.51
2017-06-18T08:42:24.915Z,26.52
2017-06-18T08:43:24.630Z,26.52
2017-06-18T08:44:24.665Z,26.52
2017-06-18T08:45:25.010Z,26.51
2017-06-18T08:46:24.976Z,26.52
2017-06-18T08:47:25.065Z,26.57
2017-06-18T08:48:24.779Z,26.54
2017-06-18T08:49:25.114Z,26.58
2017-06-18T08:50:25.149Z,26.62
2017-06-18T08:51:25.179Z,26.57
2017-06-18T08:52:25.207Z,26.52
2017-06-18T08:53:25.238Z,26.57
2017-06-18T08:54:25.266Z,26.57
2017-06-18T08:55:25.298Z,26.51
2017-06-18T08:56:25.263Z,26.51
2017-06-18T08:57:25.351Z,26.57
2017-06-18T08:58:25.069Z,26.58
2017-06-18T08:59:25.098Z,26.52
2017-06-18T09:00:25.443Z,26.6
2017-06-18T09:01:25.470Z,26.57
2017-06-18T09:02:25.503Z,26.51
2017-06-18T09:03:25.528Z,26.57
2017-06-18T09:04:25.562Z,26.5
2017-06-18T09:05:25.590Z,26.58
2017-06-18T09:06:25.306Z,26.52
2017-06-18T09:07:25.335Z,26.62
2017-06-18T09:08:25.361Z,26.57
2017-06-18T09:09:25.720Z,26.58
2017-06-18T09:10:25.421Z,26.55
2017-06-18T09:11:25.391Z,26.57
2017-06-18T09:12:25.792Z,26.54
2017-06-18T09:13:25.509Z,26.58
2017-06-18T09:14:25.537Z,26.54
2017-06-18T09:15:25.882Z,26.52
2017-06-18T09:16:26.157Z,26.5
2017-06-18T09:17:25.944Z,26.48
2017-06-18T09:18:25.973Z,26.62
2017-06-18T09:19:26.003Z,26.52
2017-06-18T09:20:25.713Z,26.58
2017-06-18T09:21:25.746Z,26.52
2017-06-18T09:22:25.779Z,26.58
2017-06-18T09:23:25.800Z,26.51
2017-06-18T09:24:25.829Z,26.6
2017-06-18T09:25:26.178Z,26.58
2017-06-18T09:26:26.208Z,26.55
2017-06-18T09:27:26.239Z,26.62
2017-06-18T09:28:26.261Z,26.52
2017-06-18T09:29:26.297Z,26.6
2017-06-18T09:30:26.326Z,26.62
2017-06-18T09:31:26.355Z,26.63
2017-06-18T09:32:26.389Z,26.65
2017-06-18T09:33:26.434Z,26.51
2017-06-18T09:34:26.442Z,26.57
2017-06-18T09:35:26.463Z,26.66
2017-06-18T09:36:25.875Z,26.65
2017-06-18T09:37:26.787Z,26.62
2017-06-18T09:38:26.565Z,26.66
2017-06-18T09:39:26.580Z,26.69
2017-06-18T09:40:26.614Z,26.72
2017-06-18T09:41:26.643Z,26.62
2017-06-18T09:42:26.928Z,26.66
2017-06-18T09:43:26.394Z,26.66
2017-06-18T09:44:26.113Z,26.66
2017-06-18T09:45:26.765Z,26.62
2017-06-18T09:46:26.794Z,26.8
2017-06-18T09:47:26.755Z,26.75
2017-06-18T09:48:26.532Z,26.73
2017-06-18T09:49:26.597Z,26.77
2017-06-18T09:50:26.601Z,26.75
2017-06-18T09:51:26.943Z,26.76
2017-06-18T09:52:27.223Z,26.7
2017-06-18T09:53:27.001Z,26.72
2017-06-18T09:54:27.030Z,26.69
2017-06-18T09:55:27.062Z,26.73
2017-06-18T09:56:27.091Z,26.76
2017-06-18T09:57:27.369Z,26.75
2017-06-18T09:58:27.140Z,26.73
2017-06-18T09:59:27.177Z,26.73
2017-06-18T10:00:27.210Z,26.69
2017-06-18T10:01:26.611Z,26.82
2017-06-18T10:02:27.202Z,26.81
2017-06-18T10:03:27.292Z,26.8
2017-06-18T10:04:27.325Z,26.82
2017-06-18T10:05:27.043Z,26.82
2017-06-18T10:06:27.386Z,26.82
2017-06-18T10:07:27.663Z,26.82
2017-06-18T10:08:27.124Z,26.85
2017-06-18T10:09:27.474Z,26.82
2017-06-18T10:10:27.191Z,26.8
2017-06-18T10:11:27.535Z,26.87
2017-06-18T10:12:27.500Z,26.91
2017-06-18T10:13:26.968Z,26.95
2017-06-18T10:14:26.997Z,26.91
2017-06-18T10:15:27.361Z,26.94
2017-06-18T10:16:27.678Z,26.99
2017-06-18T10:17:27.711Z,27.03
2017-06-18T10:18:27.737Z,26.99
2017-06-18T10:19:27.769Z,26.99
2017-06-18T10:20:27.790Z,26.95
2017-06-18T10:21:27.821Z,26.99
2017-06-18T10:22:28.097Z,27
2017-06-18T10:23:27.887Z,26.99
2017-06-18T10:24:27.597Z,26.91
2017-06-18T10:25:27.636Z,26.88
2017-06-18T10:26:27.979Z,26.94
2017-06-18T10:27:27.692Z,26.95
2017-06-18T10:28:27.725Z,26.99
2017-06-18T10:29:27.445Z,27.04
2017-06-18T10:30:27.779Z,27.09
2017-06-18T10:31:28.123Z,26.94
2017-06-18T10:32:28.155Z,27.09
2017-06-18T10:33:28.185Z,26.95
2017-06-18T10:34:28.213Z,27.03
2017-06-18T10:35:28.239Z,27.03
2017-06-18T10:36:28.275Z,26.99
2017-06-18T10:37:28.299Z,27.03
2017-06-18T10:38:28.326Z,27.09
2017-06-18T10:39:28.041Z,27.03
2017-06-18T10:40:28.392Z,27.02
2017-06-18T10:41:28.419Z,27.04
2017-06-18T10:42:28.451Z,27.03
2017-06-18T10:43:28.476Z,27.1
2017-06-18T10:44:28.502Z,27.04
2017-06-18T10:45:28.535Z,27.06
2017-06-18T10:46:28.259Z,27.06
2017-06-18T10:47:28.284Z,27.1
2017-06-18T10:48:28.629Z,27.1
2017-06-18T10:49:28.654Z,27.09
2017-06-18T10:50:28.681Z,27.09
2017-06-18T10:51:28.708Z,27.12
2017-06-18T10:52:28.750Z,27.13
2017-06-18T10:53:28.457Z,27.21
2017-06-18T10:54:28.487Z,27.29
2017-06-18T10:55:28.522Z,27.25
2017-06-18T10:56:28.554Z,27.1
2017-06-18T10:57:28.891Z,27.25
2017-06-18T10:58:28.609Z,27.24
2017-06-18T10:59:28.950Z,27.14
2017-06-18T11:00:28.398Z,27.24
2017-06-18T11:01:29.012Z,27.24
2017-06-18T11:02:28.720Z,27.17
2017-06-18T11:03:29.328Z,27.24
2017-06-18T11:04:28.794Z,27.27
2017-06-18T11:05:29.135Z,27.24
2017-06-18T11:06:29.163Z,27.18
2017-06-18T11:07:28.879Z,27.29
2017-06-18T11:08:29.224Z,27.25
2017-06-18T11:09:28.942Z,27.24
2017-06-18T11:10:29.281Z,27.21
2017-06-18T11:11:29.311Z,27.29
2017-06-18T11:12:29.347Z,27.27
2017-06-18T11:13:29.369Z,27.19
2017-06-18T11:14:29.090Z,27.27
2017-06-18T11:15:29.430Z,27.25
2017-06-18T11:16:28.836Z,27.22
2017-06-18T11:17:29.493Z,27.19
2017-06-18T11:18:29.763Z,27.28
2017-06-18T11:19:29.562Z,27.24
2017-06-18T11:20:29.578Z,27.22
2017-06-18T11:21:29.611Z,27.27
2017-06-18T11:22:29.643Z,27.32
2017-06-18T11:23:29.674Z,27.18
2017-06-18T11:24:29.688Z,27.32
2017-06-18T11:25:29.750Z,27.25
2017-06-18T11:26:29.764Z,27.25
2017-06-18T11:27:29.792Z,27.19
2017-06-18T11:28:29.819Z,27.34
2017-06-18T11:29:29.846Z,27.37
2017-06-18T11:30:29.572Z,27.37
2017-06-18T11:31:29.599Z,27.37
2017-06-18T11:32:29.628Z,27.36
2017-06-18T11:33:29.910Z,27.41
2017-06-18T11:34:30.002Z,27.4
2017-06-18T11:35:29.717Z,27.47
2017-06-18T11:36:29.740Z,27.55
2017-06-18T11:37:30.080Z,27.62
2017-06-18T11:38:29.806Z,27.7
2017-06-18T11:39:29.838Z,27.7
2017-06-18T11:40:30.194Z,27.78
2017-06-18T11:41:30.207Z,27.88
2017-06-18T11:42:30.244Z,28.07
2017-06-18T11:43:30.215Z,28.17
2017-06-18T11:44:29.987Z,28.29
2017-06-18T11:45:30.334Z,28.41
2017-06-18T11:46:30.363Z,28.52
2017-06-18T11:47:30.079Z,28.61
2017-06-18T11:48:30.429Z,28.77
2017-06-18T11:49:30.457Z,28.86
2017-06-18T11:50:30.178Z,28.98
2017-06-18T11:51:30.214Z,29.19
2017-06-18T11:52:30.551Z,29.18
2017-06-18T11:53:30.839Z,29.33
2017-06-18T11:54:30.616Z,29.42
2017-06-18T11:55:30.338Z,29.41
2017-06-18T11:56:30.679Z,29.6
2017-06-18T11:57:30.406Z,29.67
2017-06-18T11:58:30.432Z,29.73
2017-06-18T11:59:30.781Z,29.85
2017-06-18T12:00:30.809Z,29.9
2017-06-18T12:01:30.842Z,30.02
2017-06-18T12:02:30.576Z,30.16
2017-06-18T12:03:31.157Z,30.24
2017-06-18T12:04:30.939Z,30.24
2017-06-18T12:05:30.982Z,30.42
2017-06-18T12:06:30.695Z,30.49
2017-06-18T12:07:30.728Z,30.61
2017-06-18T12:08:30.752Z,30.64
2017-06-18T12:09:30.798Z,30.73
2017-06-18T12:10:31.142Z,30.83
2017-06-18T12:11:31.173Z,30.84
2017-06-18T12:12:30.900Z,30.91
2017-06-18T12:13:31.249Z,31.07
2017-06-18T12:14:30.965Z,31.12
2017-06-18T12:15:30.999Z,31.23
2017-06-18T12:16:31.036Z,31.26
2017-06-18T12:17:31.381Z,31.38
2017-06-18T12:18:31.409Z,31.47
2017-06-18T12:19:31.436Z,31.57
2017-06-18T12:20:31.167Z,31.62
2017-06-18T12:21:31.203Z,31.72
2017-06-18T12:22:31.544Z,31.69
2017-06-18T12:23:31.265Z,31.75
2017-06-18T12:24:31.613Z,31.81
2017-06-18T12:25:31.344Z,32.03
2017-06-18T12:26:31.684Z,31.92
2017-06-18T12:27:31.728Z,32.03
2017-06-18T12:28:31.757Z,32.19
2017-06-18T12:29:31.477Z,32.22
2017-06-18T12:30:31.826Z,32.23
2017-06-18T12:31:31.539Z,32.3
2017-06-18T12:32:31.583Z,32.32
2017-06-18T12:33:31.613Z,32.4
2017-06-18T12:34:31.333Z,32.45
2017-06-18T12:35:31.690Z,32.55
2017-06-18T12:36:32.034Z,32.62
2017-06-18T12:37:32.062Z,32.67
2017-06-18T12:38:32.106Z,32.72
2017-06-18T12:39:32.137Z,32.78
2017-06-18T12:40:32.165Z,32.75
2017-06-18T12:41:32.205Z,32.84
2017-06-18T12:42:32.240Z,32.88
2017-06-18T12:43:32.520Z,32.93
2017-06-18T12:44:32.311Z,32.97
2017-06-18T12:45:31.722Z,33.01
2017-06-18T12:46:32.374Z,33.01
2017-06-18T12:47:32.411Z,33.14
2017-06-18T12:48:32.449Z,33.16
2017-06-18T12:49:32.492Z,33.09
2017-06-18T12:50:32.523Z,33.09
2017-06-18T12:51:32.244Z,33.07
2017-06-18T12:52:32.284Z,33.15
2017-06-18T12:53:32.629Z,33.14
2017-06-18T12:54:32.658Z,33.26
2017-06-18T12:55:32.695Z,33.23
2017-06-18T12:56:32.726Z,33.22